Time;durP1;ratioP1;P1;durP2;ratioP2;P2;SDS_P1;SDS_P2;PMS_P1;PMS_P2;Temp;Humidity;BMP_temperature;BMP_pressure;BME280_temperature;BME280_humidity;BME280_pressure;Samples;Min_cycle;Max_cycle;Signal;HPM_P1;HPM_P2
2021/10/12 00:02:16;;;;;;;2.35;0.52;;;;;;;8.56;100.00;101842.13;6248216;28;20053;-81
2021/10/12 00:05:17;;;;;;;1.50;0.63;;;;;;;8.56;100.00;101840.38;6267797;22;20113;-77
2021/10/12 00:08:20;;;;;;;0.40;0.35;;;;;;;8.51;100.00;101839.63;6254755;28;20053;-78
2021/10/12 00:11:21;;;;;;;0.30;0.30;;;;;;;8.51;100.00;101823.91;6272332;28;20076;-77
2021/10/12 00:14:22;;;;;;;0.60;0.50;;;;;;;8.52;100.00;101817.78;6265582;28;20579;-79
2021/10/12 00:17:24;;;;;;;1.67;0.45;;;;;;;8.53;100.00;101808.16;6271156;28;20045;-77
2021/10/12 00:20:26;;;;;;;0.30;0.30;;;;;;;8.58;100.00;101809.75;6272318;28;20053;-78
2021/10/12 00:23:28;;;;;;;2.50;0.57;;;;;;;8.59;100.00;101795.75;6272136;28;20045;-78
2021/10/12 00:26:30;;;;;;;1.33;0.38;;;;;;;8.57;100.00;101789.69;6275948;28;20048;-79
2021/10/12 00:29:31;;;;;;;0.60;0.60;;;;;;;8.58;100.00;101786.19;6276313;28;20045;-77
2021/10/12 00:32:33;;;;;;;3.35;0.80;;;;;;;8.56;100.00;101780.09;6274965;28;20515;-79
2021/10/12 00:35:34;;;;;;;0.25;0.22;;;;;;;8.55;100.00;101783.63;6279144;28;20056;-77
2021/10/12 00:38:37;;;;;;;0.82;0.50;;;;;;;8.60;100.00;101771.25;6276624;28;20071;-76
2021/10/12 00:41:39;;;;;;;0.98;0.70;;;;;;;8.57;100.00;101768.72;6276408;28;20041;-77
2021/10/12 00:44:40;;;;;;;0.52;0.30;;;;;;;8.61;100.00;101759.88;6276390;28;20408;-77
2021/10/12 00:47:55;;;;;;;0.40;0.40;;;;;;;8.53;100.00;101748.75;6276635;28;20056;-77
2021/10/12 00:50:57;;;;;;;0.40;0.40;;;;;;;8.54;100.00;101755.72;6276053;28;20071;-76
2021/10/12 00:53:59;;;;;;;0.65;0.55;;;;;;;8.58;100.00;101748.63;6275943;28;20487;-77
2021/10/12 00:57:01;;;;;;;1.13;0.40;;;;;;;8.58;100.00;101751.22;6276024;28;20056;-77
2021/10/12 01:00:03;;;;;;;3.72;0.70;;;;;;;8.58;100.00;101746.00;6276133;28;20052;-77
2021/10/12 01:03:04;;;;;;;1.45;0.45;;;;;;;8.52;100.00;101744.41;6275786;28;20064;-76
2021/10/12 01:06:06;;;;;;;1.10;0.30;;;;;;;8.50;100.00;101746.25;6275672;28;20053;-77
2021/10/12 01:09:08;;;;;;;0.10;0.10;;;;;;;8.50;100.00;101748.00;6275760;28;20048;-76
2021/10/12 01:12:10;;;;;;;1.95;0.95;;;;;;;8.61;100.00;101744.16;6275812;28;20393;-77
2021/10/12 01:15:11;;;;;;;4.55;0.60;;;;;;;8.52;100.00;101743.56;6275341;28;20045;-77
2021/10/12 01:18:14;;;;;;;1.30;0.65;;;;;;;8.58;100.00;101736.41;6275745;28;20052;-77
2021/10/12 01:21:16;;;;;;;3.13;0.38;;;;;;;8.58;100.00;101732.91;6275746;28;20131;-77
2021/10/12 01:24:18;;;;;;;1.15;0.40;;;;;;;8.57;100.00;101729.41;6275192;28;20056;-77
2021/10/12 01:27:21;;;;;;;4.47;0.40;;;;;;;8.53;100.00;101738.28;6276007;28;20056;-77
2021/10/12 01:30:23;;;;;;;3.60;0.70;;;;;;;8.56;100.00;101729.47;6275623;28;20132;-77
2021/10/12 01:33:24;;;;;;;5.80;0.50;;;;;;;8.54;100.00;101719.06;6275537;28;20041;-76
2021/10/12 01:36:27;;;;;;;4.00;0.45;;;;;;;8.53;100.00;101716.47;6275561;28;20060;-76
2021/10/12 01:39:28;;;;;;;1.20;0.40;;;;;;;8.51;100.00;101715.66;6275030;28;20511;-77
2021/10/12 01:42:30;;;;;;;1.02;0.50;;;;;;;8.55;100.00;101715.53;6274936;28;20514;-77
2021/10/12 01:45:31;;;;;;;0.47;0.30;;;;;;;8.56;100.00;101704.13;6273808;28;20623;-76
2021/10/12 01:48:33;;;;;;;2.45;0.60;;;;;;;8.61;100.00;101694.38;6275051;28;20053;-77
2021/10/12 01:51:37;;;;;;;1.27;0.75;;;;;;;8.66;100.00;101694.22;6274811;28;20416;-77
2021/10/12 01:54:39;;;;;;;1.10;0.40;;;;;;;8.65;100.00;101671.56;6274551;28;20051;-77
2021/10/12 01:57:40;;;;;;;1.55;0.75;;;;;;;8.65;100.00;101668.94;6274632;28;20045;-77
2021/10/12 02:00:41;;;;;;;0.88;0.47;;;;;;;8.70;100.00;101663.56;6274750;28;20057;-77
2021/10/12 02:03:43;;;;;;;0.40;0.38;;;;;;;8.72;100.00;101659.13;6274002;28;20045;-77
2021/10/12 02:06:45;;;;;;;0.40;0.40;;;;;;;8.70;100.00;101656.56;6274313;28;20574;-77
2021/10/12 02:09:47;;;;;;;1.20;0.65;;;;;;;8.72;100.00;101646.91;6274159;28;20484;-77
2021/10/12 02:12:48;;;;;;;0.35;0.35;;;;;;;8.73;100.00;101635.50;6274260;28;20056;-77
2021/10/12 02:15:50;;;;;;;1.02;0.32;;;;;;;8.74;100.00;101631.13;6273940;28;20045;-77
2021/10/12 02:18:51;;;;;;;1.80;0.93;;;;;;;8.70;100.00;101619.00;6274091;28;20045;-76
2021/10/12 02:21:54;;;;;;;1.10;0.45;;;;;;;8.75;100.00;101606.63;6274355;28;20500;-77
2021/10/12 02:24:55;;;;;;;0.73;0.60;;;;;;;8.75;100.00;101620.56;6273405;28;20052;-76
2021/10/12 02:27:56;;;;;;;2.05;0.60;;;;;;;8.71;100.00;101621.56;6273903;28;20048;-76
2021/10/12 02:30:58;;;;;;;2.65;0.45;;;;;;;8.72;100.00;101612.81;6273958;28;20055;-77
2021/10/12 02:33:59;;;;;;;0.98;0.50;;;;;;;8.70;100.00;101617.25;6273705;28;20041;-77
2021/10/12 02:37:03;;;;;;;0.73;0.60;;;;;;;8.72;100.00;101623.31;6273842;28;20053;-76
2021/10/12 02:40:05;;;;;;;0.50;0.50;;;;;;;8.79;100.00;101616.09;6273584;28;20045;-79
2021/10/12 02:43:07;;;;;;;1.05;0.60;;;;;;;8.77;100.00;101610.06;6273882;28;20052;-77
2021/10/12 02:46:08;;;;;;;1.88;0.68;;;;;;;8.78;100.00;101604.75;6272912;28;20049;-77
2021/10/12 02:49:10;;;;;;;0.30;0.30;;;;;;;8.79;100.00;101603.84;6273421;28;20048;-77
2021/10/12 02:52:12;;;;;;;1.10;0.75;;;;;;;8.81;100.00;101598.53;6272886;28;20060;-77
2021/10/12 02:55:14;;;;;;;3.63;0.57;;;;;;;8.83;100.00;101587.13;6272695;28;20045;-77
2021/10/12 02:58:15;;;;;;;1.13;0.50;;;;;;;8.79;100.00;101589.88;6272003;28;20049;-78
2021/10/12 03:01:17;;;;;;;3.65;0.60;;;;;;;8.75;100.00;101585.66;6273206;28;20055;-77
2021/10/12 03:04:18;;;;;;;1.58;0.50;;;;;;;8.76;100.00;101571.63;6272560;28;20048;-77
2021/10/12 03:07:21;;;;;;;0.90;0.50;;;;;;;8.77;100.00;101565.50;6272900;28;20519;-77
2021/10/12 03:10:22;;;;;;;2.60;0.80;;;;;;;8.72;100.00;101567.41;6272786;28;20057;-78
2021/10/12 03:13:24;;;;;;;0.60;0.60;;;;;;;8.74;100.00;101555.97;6272887;28;20053;-77
2021/10/12 03:16:25;;;;;;;2.53;0.95;;;;;;;8.75;100.00;101555.06;6272978;28;20052;-77
2021/10/12 03:19:26;;;;;;;1.08;0.70;;;;;;;8.72;100.00;101544.69;6272650;28;20512;-77
2021/10/12 03:22:29;;;;;;;2.38;0.70;;;;;;;8.78;100.00;101551.50;6272608;28;20048;-76
2021/10/12 03:25:30;;;;;;;0.50;0.38;;;;;;;8.75;100.00;101546.34;6272383;28;20045;-77
2021/10/12 03:28:32;;;;;;;1.17;0.57;;;;;;;8.86;100.00;101552.97;6272649;28;20412;-78
2021/10/12 03:31:33;;;;;;;1.40;0.68;;;;;;;8.79;100.00;101546.19;6274312;28;20056;-77
2021/10/12 03:34:35;;;;;;;1.75;0.68;;;;;;;8.85;100.00;101547.75;6272306;28;20508;-77
2021/10/12 03:37:37;;;;;;;5.55;0.77;;;;;;;8.77;100.00;101541.94;6272353;28;20139;-76
2021/10/12 03:40:39;;;;;;;1.55;0.80;;;;;;;8.75;100.00;101530.63;6272045;28;20056;-77
2021/10/12 03:43:40;;;;;;;0.60;0.50;;;;;;;8.89;100.00;101529.25;6271427;28;20048;-76
2021/10/12 03:46:41;;;;;;;3.22;0.80;;;;;;;8.76;100.00;101541.03;6271732;28;20127;-76
2021/10/12 03:49:43;;;;;;;2.45;0.77;;;;;;;8.78;100.00;101536.63;6272077;28;20519;-76
2021/10/12 03:52:45;;;;;;;1.55;1.00;;;;;;;8.81;100.00;101520.81;6272123;28;20079;-78
2021/10/12 03:55:47;;;;;;;0.63;0.63;;;;;;;8.89;100.00;101523.16;6271278;28;20052;-78
2021/10/12 03:58:49;;;;;;;0.90;0.65;;;;;;;8.89;100.00;101528.38;6271775;28;20053;-78
2021/10/12 04:01:50;;;;;;;1.58;0.63;;;;;;;8.86;100.00;101526.75;6271671;28;20056;-76
2021/10/12 04:04:51;;;;;;;2.22;0.75;;;;;;;8.90;100.00;101517.00;6270891;28;20415;-76
2021/10/12 04:07:54;;;;;;;2.22;1.20;;;;;;;8.87;100.00;101525.81;6273005;28;20071;-76
2021/10/12 04:10:55;;;;;;;3.78;1.55;;;;;;;8.90;100.00;101517.00;6276527;28;20045;-76
2021/10/12 04:13:57;;;;;;;2.25;0.95;;;;;;;8.95;100.00;101516.81;6276579;28;20064;-76
2021/10/12 04:16:58;;;;;;;2.00;0.80;;;;;;;8.95;100.00;101516.81;6276176;28;20416;-76
2021/10/12 04:20:00;;;;;;;1.08;0.75;;;;;;;8.91;100.00;101504.78;6276271;28;20048;-77
2021/10/12 04:23:03;;;;;;;0.80;0.50;;;;;;;8.86;100.00;101508.41;6276292;28;20053;-77
2021/10/12 04:26:06;;;;;;;0.80;0.60;;;;;;;8.88;100.00;101508.34;6275713;28;20480;-74
2021/10/12 04:29:08;;;;;;;2.03;0.90;;;;;;;8.85;100.00;101500.56;6275858;28;20103;-74
2021/10/12 04:32:11;;;;;;;0.70;0.70;;;;;;;8.82;100.00;101501.53;6275752;28;20052;-74
2021/10/12 04:35:12;;;;;;;0.98;0.70;;;;;;;8.80;100.00;101487.63;6275458;28;20045;-74
2021/10/12 04:38:15;;;;;;;2.72;1.40;;;;;;;8.80;100.00;101482.38;6275591;28;20056;-74
2021/10/12 04:41:16;;;;;;;1.70;0.75;;;;;;;8.83;100.00;101478.81;6275745;28;20064;-74
2021/10/12 04:44:18;;;;;;;2.97;1.13;;;;;;;8.84;100.00;101488.38;6275073;28;20063;-75
2021/10/12 04:47:19;;;;;;;3.00;2.10;;;;;;;8.83;100.00;101490.16;6275378;28;20049;-75
2021/10/12 04:50:21;;;;;;;2.20;0.60;;;;;;;8.86;100.00;101482.19;6275238;28;20157;-75
2021/10/12 04:53:24;;;;;;;1.88;1.20;;;;;;;8.85;100.00;101482.22;6275063;28;20072;-74
2021/10/12 04:56:25;;;;;;;3.75;1.08;;;;;;;8.85;100.00;101479.59;6275191;28;20530;-75
2021/10/12 04:59:27;;;;;;;1.05;0.95;;;;;;;8.82;100.00;101467.47;6274911;28;20045;-75
2021/10/12 05:02:28;;;;;;;1.67;0.80;;;;;;;8.86;100.00;101465.59;6275195;28;20052;-75
2021/10/12 05:05:29;;;;;;;2.67;1.30;;;;;;;8.83;100.00;101470.94;6274369;28;20060;-74
2021/10/12 05:08:33;;;;;;;2.90;1.20;;;;;;;8.84;100.00;101460.41;6274995;28;20056;-74
2021/10/12 05:11:34;;;;;;;1.40;0.80;;;;;;;8.84;100.00;101460.41;6274744;28;20049;-75
2021/10/12 05:14:35;;;;;;;0.70;0.60;;;;;;;8.88;100.00;101445.44;6274525;28;20091;-74
2021/10/12 05:17:38;;;;;;;1.05;0.65;;;;;;;8.84;100.00;101444.69;6274665;28;20056;-74
2021/10/12 05:20:40;;;;;;;1.58;0.98;;;;;;;8.85;100.00;101448.16;6270671;28;20180;-74
2021/10/12 05:23:42;;;;;;;4.63;1.00;;;;;;;8.84;100.00;101441.19;6271457;28;20049;-74
2021/10/12 05:26:44;;;;;;;1.50;1.15;;;;;;;8.85;100.00;101442.91;6274502;28;20045;-74
2021/10/12 05:29:45;;;;;;;2.13;1.48;;;;;;;8.86;100.00;101444.63;6274359;28;20049;-74
2021/10/12 05:32:47;;;;;;;2.05;1.08;;;;;;;8.92;100.00;101446.19;6274621;28;20053;-75
2021/10/12 05:35:50;;;;;;;2.38;1.40;;;;;;;8.89;100.00;101439.28;6274140;28;20049;-74
2021/10/12 05:38:52;;;;;;;1.85;1.40;;;;;;;8.89;100.00;101440.13;6274097;28;20048;-74
2021/10/12 05:41:54;;;;;;;2.03;1.30;;;;;;;8.92;100.00;101430.44;6268839;28;20052;-74
2021/10/12 05:44:55;;;;;;;2.30;1.38;;;;;;;8.96;100.00;101424.19;6273414;28;20071;-75
2021/10/12 05:47:58;;;;;;;1.58;1.08;;;;;;;8.98;100.00;101423.22;6268737;28;20057;-74
2021/10/12 05:50:59;;;;;;;2.03;1.52;;;;;;;9.00;100.00;101413.53;6268183;28;20411;-74
2021/10/12 05:54:02;;;;;;;1.35;0.98;;;;;;;9.05;100.00;101419.47;6259409;28;20075;-73
2021/10/12 05:57:05;;;;;;;3.15;1.20;;;;;;;9.03;100.00;101428.28;6248925;28;20056;-74
2021/10/12 06:00:08;;;;;;;1.13;1.02;;;;;;;9.08;100.00;101426.34;6269859;28;20047;-79
2021/10/12 06:03:11;;;;;;;1.67;1.17;;;;;;;9.07;100.00;101419.41;6261528;28;20040;-73
2021/10/12 06:06:12;;;;;;;1.75;1.55;;;;;;;9.06;100.00;101415.09;6261922;28;20453;-73
2021/10/12 06:09:15;;;;;;;5.30;1.15;;;;;;;9.10;100.00;101422.78;6273307;28;20056;-73
2021/10/12 06:12:16;;;;;;;3.80;1.02;;;;;;;9.09;100.00;101422.84;6273358;28;20049;-73
2021/10/12 06:15:18;;;;;;;1.73;1.05;;;;;;;9.18;100.00;101419.03;6270117;28;20051;-73
2021/10/12 06:18:20;;;;;;;2.08;1.38;;;;;;;9.08;100.00;101423.72;6273501;28;20052;-72
2021/10/12 06:21:21;;;;;;;1.95;0.93;;;;;;;9.11;100.00;101432.34;6273216;28;20049;-72
2021/10/12 06:24:24;;;;;;;1.85;1.00;;;;;;;9.11;100.00;101434.13;6270903;28;20045;-73
2021/10/12 06:27:25;;;;;;;1.35;0.90;;;;;;;9.13;100.00;101442.81;6266208;28;20048;-72
2021/10/12 06:30:27;;;;;;;0.43;0.43;;;;;;;9.11;100.00;101437.59;6273251;28;20045;-73
2021/10/12 06:33:28;;;;;;;0.82;0.77;;;;;;;9.10;100.00;101442.91;6272620;28;20048;-72
2021/10/12 06:36:31;;;;;;;1.20;0.95;;;;;;;9.12;100.00;101438.44;6272581;28;20041;-73
2021/10/12 06:39:35;;;;;;;0.88;0.60;;;;;;;9.09;100.00;101431.56;6272723;28;20041;-73
2021/10/12 06:42:36;;;;;;;1.83;0.45;;;;;;;9.09;100.00;101441.19;6272548;28;20135;-73
2021/10/12 06:45:38;;;;;;;0.43;0.38;;;;;;;9.12;100.00;101430.56;6272509;28;20041;-73
2021/10/12 06:48:39;;;;;;;0.68;0.35;;;;;;;9.07;100.00;101422.88;6272531;28;20045;-73
2021/10/12 06:51:43;;;;;;;0.57;0.50;;;;;;;9.08;100.00;101424.63;6269479;28;20049;-73
2021/10/12 06:54:48;;;;;;;3.03;0.75;;;;;;;9.20;100.00;101438.19;6272014;28;20041;-72
2021/10/12 06:57:50;;;;;;;0.95;0.50;;;;;;;9.07;100.00;101443.84;6272133;28;20048;-73
2021/10/12 07:00:51;;;;;;;0.40;0.30;;;;;;;9.06;100.00;101436.06;6272431;28;20045;-73
2021/10/12 07:03:52;;;;;;;0.40;0.40;;;;;;;9.10;100.00;101432.41;6271920;28;20075;-73
2021/10/12 07:06:54;;;;;;;2.95;0.80;;;;;;;9.07;100.00;101432.53;6271813;28;20045;-73
2021/10/12 07:09:56;;;;;;;7.43;1.60;;;;;;;9.05;100.00;101431.72;6271945;28;20401;-72
2021/10/12 07:12:58;;;;;;;2.50;0.40;;;;;;;9.01;100.00;101435.38;6272096;28;20045;-73
2021/10/12 07:15:59;;;;;;;0.50;0.50;;;;;;;9.00;100.00;101439.75;6271708;28;20393;-73
2021/10/12 07:19:01;;;;;;;0.40;0.30;;;;;;;9.02;100.00;101437.94;6272014;28;20049;-73
2021/10/12 07:22:03;;;;;;;2.38;0.38;;;;;;;9.02;100.00;101434.44;6272015;28;20052;-73
2021/10/12 07:25:07;;;;;;;3.00;0.50;;;;;;;9.01;100.00;101438.84;6271720;28;20049;-73
2021/10/12 07:28:08;;;;;;;1.45;0.45;;;;;;;9.07;100.00;101443.00;6271428;28;20409;-73
2021/10/12 07:31:10;;;;;;;2.10;0.88;;;;;;;8.95;100.00;101435.56;6271965;28;20049;-73
2021/10/12 07:34:12;;;;;;;0.30;0.30;;;;;;;8.97;100.00;101439.00;6271456;28;20056;-72
2021/10/12 07:37:13;;;;;;;1.17;0.35;;;;;;;8.99;100.00;101440.66;6271384;28;20041;-72
2021/10/12 07:40:16;;;;;;;0.20;0.20;;;;;;;9.04;100.00;101440.50;6271601;28;20527;-72
2021/10/12 07:43:17;;;;;;;0.25;0.25;;;;;;;9.03;100.00;101433.53;6270917;28;20050;-73
2021/10/12 07:46:18;;;;;;;0.20;0.20;;;;;;;9.04;100.00;101432.66;6271336;28;20056;-72
2021/10/12 07:49:20;;;;;;;0.40;0.40;;;;;;;9.03;100.00;101449.25;6271592;28;20057;-72
2021/10/12 07:52:21;;;;;;;3.13;0.20;;;;;;;9.13;100.00;101442.81;6271335;28;20072;-72
2021/10/12 07:55:30;;;;;;;0.43;0.22;;;;;;;9.10;100.00;101441.13;6270997;28;20041;-72
2021/10/12 07:58:31;;;;;;;0.10;0.10;;;;;;;9.15;100.00;101441.81;6271402;28;20488;-73
2021/10/12 08:01:33;;;;;;;0.52;0.20;;;;;;;9.28;100.00;101438.75;6271376;28;20087;-73
2021/10/12 08:04:34;;;;;;;0.10;0.10;;;;;;;9.20;100.00;101428.53;6271334;28;20052;-73
2021/10/12 08:07:36;;;;;;;0.10;0.10;;;;;;;9.30;100.00;101431.69;6270964;28;20045;-73
2021/10/12 08:10:39;;;;;;;0.75;0.10;;;;;;;9.23;100.00;101431.06;6264087;28;20056;-73
2021/10/12 08:13:41;;;;;;;0.20;0.20;;;;;;;9.26;100.00;101427.44;6261689;28;20119;-71
2021/10/12 08:16:44;;;;;;;1.45;0.20;;;;;;;9.36;100.00;101420.97;6265888;28;20052;-73
2021/10/12 08:19:45;;;;;;;0.60;0.30;;;;;;;9.29;100.00;101428.19;6251329;28;20504;-72
2021/10/12 08:22:47;;;;;;;0.98;0.22;;;;;;;9.31;100.00;101425.50;6246245;28;20053;-73
2021/10/12 08:25:49;;;;;;;0.70;0.30;;;;;;;9.35;100.00;101422.72;6246065;28;20053;-73
2021/10/12 08:28:51;;;;;;;1.02;0.17;;;;;;;9.43;100.00;101425.06;6270480;28;20423;-73
2021/10/12 08:31:52;;;;;;;0.10;0.10;;;;;;;9.47;100.00;101420.56;6271157;28;20051;-72
2021/10/12 08:34:54;;;;;;;2.70;0.22;;;;;;;9.51;100.00;101427.41;6292634;28;20071;-71
2021/10/12 08:37:55;;;;;;;0.30;0.30;;;;;;;9.53;100.00;101428.19;6276666;28;20037;-73
2021/10/12 08:41:00;;;;;;;0.10;0.10;;;;;;;9.57;100.00;101420.13;6263460;28;20080;-73
2021/10/12 08:44:02;;;;;;;0.10;0.10;;;;;;;9.66;100.00;101418.94;6254413;28;20056;-73
2021/10/12 08:47:03;;;;;;;0.20;0.17;;;;;;;9.57;100.00;101419.28;6253329;28;20053;-73
2021/10/12 08:50:08;;;;;;;0.30;0.30;;;;;;;9.54;100.00;101416.81;6245794;28;20049;-72
2021/10/12 08:53:09;;;;;;;1.00;0.63;;;;;;;9.53;100.00;101412.44;6245885;28;20079;-72
2021/10/12 08:56:12;;;;;;;0.25;0.20;;;;;;;9.63;100.00;101419.94;6271326;28;20056;-73
2021/10/12 08:59:13;;;;;;;0.50;0.13;;;;;;;9.68;100.00;101429.41;6275210;28;20049;-72
2021/10/12 09:02:17;;;;;;;1.75;0.28;;;;;;;9.68;100.00;101421.53;6275025;28;20060;-73
2021/10/12 09:05:23;;;;;;;0.40;0.25;;;;;;;9.84;100.00;101420.84;6274771;28;20048;-73
2021/10/12 09:08:27;;;;;;;0.45;0.30;;;;;;;9.85;100.00;101427.78;6274808;28;20147;-73
2021/10/12 09:11:31;;;;;;;0.32;0.30;;;;;;;9.88;100.00;101421.59;6267208;28;20046;-73
2021/10/12 09:14:32;;;;;;;1.75;0.28;;;;;;;9.95;100.00;101425.69;6249612;28;20061;-72
2021/10/12 09:17:35;;;;;;;0.40;0.40;;;;;;;9.97;100.00;101418.59;6253766;28;20037;-71
2021/10/12 09:20:36;;;;;;;2.65;0.75;;;;;;;10.08;100.00;101421.66;6274694;28;20427;-72
2021/10/12 09:23:40;;;;;;;1.75;0.30;;;;;;;10.07;100.00;101424.31;6274381;28;20488;-71
2021/10/12 09:26:44;;;;;;;1.40;0.35;;;;;;;10.18;100.00;101416.88;6274446;28;20048;-73
2021/10/12 09:29:48;;;;;;;0.20;0.20;;;;;;;10.22;100.00;101417.59;6274295;28;20045;-72
2021/10/12 09:32:58;;;;;;;0.43;0.30;;;;;;;10.27;100.00;101413.06;6274315;28;20049;-72
2021/10/12 09:35:59;;;;;;;0.10;0.10;;;;;;;10.33;100.00;101412.78;6274005;28;20496;-73
2021/10/12 09:39:01;;;;;;;0.30;0.20;;;;;;;10.35;100.00;101405.69;6274229;28;20049;-73
2021/10/12 09:42:08;;;;;;;2.67;0.50;;;;;;;10.34;100.00;101399.56;6274273;28;20056;-72
2021/10/12 09:45:09;;;;;;;0.38;0.30;;;;;;;10.25;100.00;101393.84;6273856;28;20515;-72
2021/10/12 09:48:27;;;;;;;1.67;0.60;;;;;;;10.24;100.00;101402.63;6273945;28;20044;-73
2021/10/12 09:51:29;;;;;;;0.90;0.30;;;;;;;10.19;100.00;101397.56;6274146;28;20124;-73
2021/10/12 09:54:32;;;;;;;4.93;0.50;;;;;;;10.21;100.00;101403.59;6274062;28;20056;-72
2021/10/12 09:57:38;;;;;;;2.03;0.55;;;;;;;10.30;100.00;101410.28;6273867;28;20044;-72
2021/10/12 10:00:39;;;;;;;0.80;0.40;;;;;;;10.36;100.00;101413.53;6273719;28;20132;-72
2021/10/12 10:03:40;;;;;;;0.63;0.15;;;;;;;10.29;100.00;101413.84;6265164;28;20049;-72
2021/10/12 10:06:43;;;;;;;0.30;0.30;;;;;;;10.18;100.00;101416.03;6259424;28;20048;-72
2021/10/12 10:09:45;;;;;;;0.82;0.50;;;;;;;10.20;100.00;101430.78;6258948;28;20045;-74
2021/10/12 10:12:48;;;;;;;2.55;0.60;;;;;;;9.79;100.00;101425.41;6251371;28;20057;-75
2021/10/12 10:15:50;;;;;;;0.35;0.35;;;;;;;9.50;100.00;101418.69;6266914;28;20435;-74
2021/10/12 10:18:52;;;;;;;1.48;0.45;;;;;;;9.15;100.00;101418.22;6273292;28;20091;-74
2021/10/12 10:21:53;;;;;;;0.43;0.43;;;;;;;9.06;100.00;101425.56;6273105;28;20053;-74
2021/10/12 10:24:56;;;;;;;4.47;0.60;;;;;;;9.03;100.00;101428.28;6272866;28;20053;-74
2021/10/12 10:28:23;;;;;;;1.20;0.30;;;;;;;8.90;100.00;101430.50;6273046;28;20630;-73
2021/10/12 10:31:42;;;;;;;0.20;0.15;;;;;;;8.92;100.00;101423.44;6273309;28;20052;-74
2021/10/12 10:34:44;;;;;;;;;;;;;;;8.98;100.00;101410.09;6273247;28;20056;-74
2021/10/12 10:37:50;;;;;;;1.33;0.30;;;;;;;9.06;100.00;101412.47;6272796;28;19943;-72
2021/10/12 10:41:13;;;;;;;1.48;0.47;;;;;;;9.06;100.00;101415.09;6272908;28;20059;-75
2021/10/12 10:44:16;;;;;;;0.77;0.30;;;;;;;9.01;100.00;101409.16;6272243;28;20053;-72
2021/10/12 10:47:49;;;;;;;2.03;1.55;;;;;;;9.06;100.00;101401.97;6272747;28;20048;-74
2021/10/12 10:50:52;;;;;;;0.85;0.50;;;;;;;8.98;100.00;101404.88;6262122;28;20053;-74
2021/10/12 10:53:54;;;;;;;0.40;0.20;;;;;;;9.06;100.00;101415.09;6272310;28;20048;-74
2021/10/12 10:57:08;;;;;;;1.98;0.28;;;;;;;9.38;100.00;101413.91;6272406;28;20049;-74
2021/10/12 11:00:31;;;;;;;0.22;0.22;;;;;;;9.23;100.00;101404.84;6272471;28;20187;-73
2021/10/12 11:03:35;;;;;;;0.28;0.28;;;;;;;9.46;100.00;101413.63;6272034;28;20491;-74
2021/10/12 11:06:37;;;;;;;0.52;0.40;;;;;;;9.69;100.00;101397.84;6272248;28;20048;-72
2021/10/12 11:09:43;;;;;;;0.47;0.40;;;;;;;9.97;100.00;101397.59;6272137;28;20048;-74
2021/10/12 11:12:44;;;;;;;0.20;0.20;;;;;;;10.15;100.00;101393.34;6272514;28;20049;-74
2021/10/12 11:15:51;;;;;;;0.50;0.28;;;;;;;10.34;100.00;101396.09;6273944;28;20052;-73
2021/10/12 11:19:01;;;;;;;0.20;0.20;;;;;;;10.65;100.00;101401.75;6271454;28;20056;-73
2021/10/12 11:22:02;;;;;;;0.22;0.22;;;;;;;10.99;100.00;101389.78;6271941;28;20049;-73
2021/10/12 11:25:04;;;;;;;0.75;0.40;;;;;;;11.18;100.00;101393.28;6271714;28;20049;-73
2021/10/12 11:28:10;;;;;;;0.50;0.40;;;;;;;11.44;100.00;101391.22;6271747;28;20048;-73
2021/10/12 11:31:15;;;;;;;0.70;0.28;;;;;;;11.65;100.00;101386.72;6271813;28;20049;-73
2021/10/12 11:34:25;;;;;;;0.52;0.43;;;;;;;11.85;100.00;101384.00;6271260;28;20439;-73
2021/10/12 11:37:26;;;;;;;0.30;0.20;;;;;;;12.15;99.88;101388.72;6247066;28;20057;-73
2021/10/12 11:40:28;;;;;;;2.00;0.30;;;;;;;12.16;94.90;101377.25;6259705;28;20049;-73
2021/10/12 11:43:32;;;;;;;0.50;0.25;;;;;;;12.32;97.91;101377.34;6271252;28;20486;-74
2021/10/12 11:46:35;;;;;;;0.45;0.20;;;;;;;12.67;95.72;101375.50;6271080;28;20045;-73
2021/10/12 11:49:40;;;;;;;0.85;0.40;;;;;;;12.61;88.02;101378.47;6271232;28;20198;-72
2021/10/12 11:52:42;;;;;;;1.27;0.15;;;;;;;11.95;81.56;101371.28;6267746;28;20106;-73
2021/10/12 11:55:43;;;;;;;0.90;0.10;;;;;;;11.56;84.09;101374.00;6262783;28;20041;-72
2021/10/12 11:58:45;;;;;;;1.35;0.38;;;;;;;11.42;87.46;101369.38;6269968;28;20507;-73
2021/10/12 12:01:48;;;;;;;0.65;0.30;;;;;;;11.81;83.78;101369.28;6260843;28;20406;-73
2021/10/12 12:04:50;;;;;;;0.65;0.30;;;;;;;12.02;87.25;101362.13;6260009;28;20048;-73
2021/10/12 12:07:52;;;;;;;0.55;0.22;;;;;;;12.34;84.81;101367.56;6259955;28;20455;-72
2021/10/12 12:10:55;;;;;;;3.60;0.20;;;;;;;12.42;81.32;101382.06;6260424;28;20048;-74
2021/10/12 12:13:58;;;;;;;0.90;0.20;;;;;;;12.22;87.97;101376.97;6276855;23;20124;-76
2021/10/12 12:17:13;;;;;;;1.05;0.25;;;;;;;12.45;86.95;101378.44;6254129;28;20484;-76
2021/10/12 12:20:15;;;;;;;0.13;0.13;;;;;;;12.24;87.57;101376.88;6254221;28;20545;-76
2021/10/12 12:23:33;;;;;;;0.55;0.30;;;;;;;12.13;84.32;101378.25;6271036;28;20049;-76
2021/10/12 12:26:34;;;;;;;1.08;0.22;;;;;;;12.27;86.97;101377.56;6271074;28;20045;-74
2021/10/12 12:29:36;;;;;;;2.28;0.40;;;;;;;12.59;85.68;101370.66;6274076;28;20049;-74
2021/10/12 12:32:39;;;;;;;1.20;0.25;;;;;;;12.78;77.32;101369.69;6275695;28;20130;-74
2021/10/12 12:35:41;;;;;;;1.90;0.20;;;;;;;13.07;76.55;101368.13;6275383;28;20049;-74
2021/10/12 12:38:44;;;;;;;1.38;0.30;;;;;;;12.75;75.99;101369.84;6275632;28;20068;-73
2021/10/12 12:41:47;;;;;;;1.00;0.47;;;;;;;12.71;80.71;101366.50;6275720;28;20080;-74
2021/10/12 12:45:06;;;;;;;0.40;0.40;;;;;;;12.77;76.50;101368.00;6275485;28;20128;-74
2021/10/12 12:48:09;;;;;;;;;;;;;;;12.73;78.42;101362.03;6275752;28;20048;-74
2021/10/12 12:51:10;;;;;;;0.20;0.20;;;;;;;12.84;77.60;101362.31;6275327;28;20295;-74
2021/10/12 12:54:33;;;;;;;0.45;0.15;;;;;;;12.85;77.33;101363.16;6274904;28;20064;-73
2021/10/12 12:57:34;;;;;;;0.10;0.10;;;;;;;13.05;76.07;101359.47;6275426;28;20052;-74
2021/10/12 13:00:37;;;;;;;0.65;0.30;;;;;;;12.94;73.23;101352.09;6275417;28;20496;-76
2021/10/12 13:03:40;;;;;;;0.95;0.20;;;;;;;12.53;76.12;101352.50;6274157;28;20416;-75
2021/10/12 13:06:42;;;;;;;0.43;0.20;;;;;;;12.41;77.08;101356.63;6250113;28;20052;-76
2021/10/12 13:09:45;;;;;;;0.13;0.13;;;;;;;12.38;82.19;101358.56;6250140;28;20463;-75
2021/10/12 13:12:48;;;;;;;0.10;0.10;;;;;;;12.29;78.32;101359.03;6249905;28;20126;-76
2021/10/12 13:15:50;;;;;;;3.22;0.30;;;;;;;12.10;75.21;101361.75;6249979;28;20053;-75
2021/10/12 13:18:52;;;;;;;1.63;0.90;;;;;;;11.90;77.96;101360.13;6271432;28;20041;-75
2021/10/12 13:21:54;;;;;;;0.43;0.20;;;;;;;12.30;80.78;101369.50;6272186;28;20044;-75
2021/10/12 13:24:55;;;;;;;1.23;0.40;;;;;;;12.46;79.21;101366.94;6272595;28;20044;-73
2021/10/12 13:27:57;;;;;;;0.73;0.32;;;;;;;12.51;77.51;101369.34;6272982;28;20045;-73
2021/10/12 13:30:58;;;;;;;0.55;0.30;;;;;;;12.56;73.43;101370.81;6272328;28;20092;-75
2021/10/12 13:34:01;;;;;;;4.78;0.60;;;;;;;12.25;76.10;101370.66;6272296;28;20424;-75
2021/10/12 13:37:02;;;;;;;0.57;0.50;;;;;;;12.15;79.11;101372.91;6272683;28;20056;-75
2021/10/12 13:40:04;;;;;;;0.28;0.20;;;;;;;11.89;80.10;101372.41;6272156;28;20048;-76
2021/10/12 13:43:06;;;;;;;0.30;0.20;;;;;;;12.36;77.43;101376.25;6272794;28;20049;-76
2021/10/12 13:46:08;;;;;;;0.25;0.25;;;;;;;12.56;77.93;101369.97;6277861;28;20052;-77
2021/10/12 13:49:10;;;;;;;0.10;0.10;;;;;;;12.37;76.28;101368.28;6280930;28;20075;-76
2021/10/12 13:52:12;;;;;;;0.20;0.20;;;;;;;12.16;79.15;101367.56;6279304;28;20052;-76
2021/10/12 13:55:13;;;;;;;2.22;0.38;;;;;;;12.08;79.83;101371.50;6273886;28;20053;-75
2021/10/12 13:58:15;;;;;;;0.20;0.20;;;;;;;12.30;78.97;101372.13;6273967;28;20424;-73
2021/10/12 14:01:16;;;;;;;3.70;0.40;;;;;;;12.70;76.67;101370.09;6273605;28;20063;-75
2021/10/12 14:04:19;;;;;;;1.38;0.20;;;;;;;12.82;78.53;101382.66;6272949;28;20136;-76
2021/10/12 14:07:21;;;;;;;0.32;0.32;;;;;;;12.60;77.39;101389.97;6273839;28;20492;-75
2021/10/12 14:10:22;;;;;;;0.10;0.10;;;;;;;11.85;79.75;101391.91;6273576;28;20051;-75